Time;durP1;ratioP1;P1;durP2;ratioP2;P2;SDS_P1;SDS_P2;PMS_P1;PMS_P2;Temp;Humidity;BMP_temperature;BMP_pressure;BME280_temperature;BME280_humidity;BME280_pressure;Samples;Min_cycle;Max_cycle;Signal;HPM_P1;HPM_P2
2022/12/04 00:07:38;;;;;;;51.3;27.7;;;;;;;1;92.8;99460;;;;
2022/12/04 00:17:38;;;;;;;51.3;27.7;;;;;;;0.9;92.7;99460;;;;
2022/12/04 00:28:38;;;;;;;47.9;26.2;;;;;;;0.9;92.9;99460;;;;
2022/12/04 00:38:39;;;;;;;47.9;26.2;;;;;;;1;92.9;99460;;;;
2022/12/04 00:48:38;;;;;;;47.9;26.2;;;;;;;0.8;93;99460;;;;
2022/12/04 00:59:38;;;;;;;40.2;23.3;;;;;;;1;92.8;99430;;;;
2022/12/04 01:10:38;;;;;;;40.2;23.3;;;;;;;1;92.6;99430;;;;
2022/12/04 01:21:38;;;;;;;40.2;23.3;;;;;;;0.9;92.4;99420;;;;
2022/12/04 01:32:38;;;;;;;49.1;27.6;;;;;;;0.7;93;99400;;;;
2022/12/04 01:42:38;;;;;;;49.1;27.6;;;;;;;0.7;93.1;99400;;;;
2022/12/04 01:53:38;;;;;;;49.1;27.6;;;;;;;0.8;92.9;99410;;;;
2022/12/04 02:03:38;;;;;;;33.9;20.7;;;;;;;0.8;92.8;99400;;;;
2022/12/04 02:14:38;;;;;;;33.9;20.7;;;;;;;0.9;92.7;99400;;;;
2022/12/04 02:24:41;;;;;;;33.9;20.7;;;;;;;1;92.6;99390;;;;
2022/12/04 02:35:38;;;;;;;33.8;19.6;;;;;;;1;92.5;99400;;;;
2022/12/04 02:46:38;;;;;;;33.8;19.6;;;;;;;0.8;92.8;99400;;;;
2022/12/04 02:57:38;;;;;;;33.8;19.6;;;;;;;0.8;93;99400;;;;
2022/12/04 03:07:38;;;;;;;30.7;17.8;;;;;;;0.9;93;99410;;;;
2022/12/04 03:17:38;;;;;;;30.7;17.8;;;;;;;0.8;93.4;99400;;;;
2022/12/04 03:28:38;;;;;;;28.6;17.2;;;;;;;0.9;93.4;99420;;;;
2022/12/04 03:39:38;;;;;;;28.6;17.2;;;;;;;1;93.6;99420;;;;
2022/12/04 03:49:38;;;;;;;28.6;17.2;;;;;;;0.9;93.8;99410;;;;
2022/12/04 04:00:38;;;;;;;26.7;15;;;;;;;1.1;93.7;99420;;;;
2022/12/04 04:11:38;;;;;;;26.7;15;;;;;;;1.1;93.8;99410;;;;
2022/12/04 04:33:38;;;;;;;25;14;;;;;;;1.1;94;99400;;;;
2022/12/04 04:44:38;;;;;;;25;14;;;;;;;1.2;94.1;99400;;;;
2022/12/04 04:54:38;;;;;;;25;14;;;;;;;1.2;94.1;99390;;;;
2022/12/04 05:05:38;;;;;;;19.1;13.4;;;;;;;1.3;94.2;99400;;;;
2022/12/04 05:16:39;;;;;;;19.1;13.4;;;;;;;1.5;94;99410;;;;
2022/12/04 05:27:38;;;;;;;20.3;11.6;;;;;;;1.4;93.9;99400;;;;
2022/12/04 05:37:38;;;;;;;20.3;11.6;;;;;;;1.4;93.8;99410;;;;
2022/12/04 05:48:38;;;;;;;20.3;11.6;;;;;;;1.3;93.7;99410;;;;
2022/12/04 05:58:38;;;;;;;23.4;11.7;;;;;;;1.4;93.6;99410;;;;
2022/12/04 06:08:38;;;;;;;23.4;11.7;;;;;;;1.4;93.5;99410;;;;
2022/12/04 06:19:38;;;;;;;23.4;11.7;;;;;;;1.4;93.5;99410;;;;
2022/12/04 06:30:38;;;;;;;21.1;11.2;;;;;;;1.3;93.8;99420;;;;
2022/12/04 06:40:38;;;;;;;21.1;11.2;;;;;;;1.3;93.8;99410;;;;
2022/12/04 06:51:39;;;;;;;21.1;11.2;;;;;;;1.4;93.7;99410;;;;
2022/12/04 07:01:38;;;;;;;19.4;11.2;;;;;;;1.5;93.7;99400;;;;
2022/12/04 07:11:38;;;;;;;19.4;11.2;;;;;;;1.3;93.7;99420;;;;
2022/12/04 07:21:38;;;;;;;19.4;11.2;;;;;;;1.5;93.7;99420;;;;
2022/12/04 07:32:38;;;;;;;17.3;9.2;;;;;;;1.5;93.6;99400;;;;
2022/12/04 07:42:38;;;;;;;17.3;9.2;;;;;;;1.6;93.5;99390;;;;
2022/12/04 07:53:38;;;;;;;17.3;9.2;;;;;;;1.5;93.5;99390;;;;
2022/12/04 08:03:38;;;;;;;19.8;12.1;;;;;;;1.5;93.6;99380;;;;
2022/12/04 08:14:38;;;;;;;19.8;12.1;;;;;;;1.7;93.5;99380;;;;
2022/12/04 08:24:38;;;;;;;19.8;12.1;;;;;;;1.8;93.1;99410;;;;
2022/12/04 08:35:38;;;;;;;17.9;12.3;;;;;;;1.9;92.8;99420;;;;
2022/12/04 08:46:38;;;;;;;17.9;12.3;;;;;;;2.1;92.7;99420;;;;
2022/12/04 08:56:38;;;;;;;17.9;12.3;;;;;;;2.3;92.2;99420;;;;
2022/12/04 09:07:38;;;;;;;18.1;11.8;;;;;;;2.3;92.1;99410;;;;
2022/12/04 09:18:38;;;;;;;18.1;11.8;;;;;;;2.5;91.8;99410;;;;
2022/12/04 09:28:38;;;;;;;20.5;14.4;;;;;;;2.6;91.2;99420;;;;
2022/12/04 09:39:38;;;;;;;20.5;14.4;;;;;;;2.7;90.8;99400;;;;
2022/12/04 09:50:38;;;;;;;20.5;14.4;;;;;;;3;90.6;99390;;;;
2022/12/04 10:01:38;;;;;;;21.2;14.1;;;;;;;2.9;90.4;99390;;;;
2022/12/04 10:11:38;;;;;;;21.2;14.1;;;;;;;2.9;90.4;99360;;;;
2022/12/04 10:22:38;;;;;;;21.2;14.1;;;;;;;3.2;90.4;99350;;;;
2022/12/04 10:33:38;;;;;;;24.7;17.6;;;;;;;2.8;91.1;99320;;;;
2022/12/04 10:44:38;;;;;;;24.7;17.6;;;;;;;3;91.2;99320;;;;
2022/12/04 10:54:39;;;;;;;24.7;17.6;;;;;;;3.3;90.6;99320;;;;
2022/12/04 11:05:38;;;;;;;27.2;18.8;;;;;;;3.3;90.8;99300;;;;
2022/12/04 11:15:38;;;;;;;27.2;18.8;;;;;;;3.5;90.6;99300;;;;
2022/12/04 11:25:38;;;;;;;27.2;18.8;;;;;;;3.6;90.5;99310;;;;
2022/12/04 11:36:39;;;;;;;25.7;19.9;;;;;;;3.8;90.3;99320;;;;
2022/12/04 11:46:38;;;;;;;25.7;19.9;;;;;;;3.8;90.1;99300;;;;
2022/12/04 11:56:38;;;;;;;29.6;22.9;;;;;;;4;89.8;99300;;;;
2022/12/04 12:07:38;;;;;;;29.6;22.9;;;;;;;4.3;89.5;99300;;;;
2022/12/04 12:17:38;;;;;;;29.6;22.9;;;;;;;4.6;89.3;99290;;;;
2022/12/04 12:28:38;;;;;;;28.2;22.1;;;;;;;4.4;88.7;99310;;;;
2022/12/04 12:38:39;;;;;;;28.2;22.1;;;;;;;4.6;88.9;99280;;;;
2022/12/04 12:49:38;;;;;;;28.2;22.1;;;;;;;4.6;88.1;99280;;;;
2022/12/04 12:59:38;;;;;;;25.9;21.1;;;;;;;4.9;87.8;99280;;;;
2022/12/04 13:10:38;;;;;;;25.9;21.1;;;;;;;5.2;87.7;99270;;;;
2022/12/04 13:20:38;;;;;;;25.9;21.1;;;;;;;5.2;86.9;99270;;;;
2022/12/04 13:31:38;;;;;;;24.1;20.4;;;;;;;5.2;86.6;99270;;;;
2022/12/04 13:41:38;;;;;;;24.1;20.4;;;;;;;5;86.3;99270;;;;
2022/12/04 13:51:38;;;;;;;24.1;20.4;;;;;;;4.6;86.8;99270;;;;
2022/12/04 14:02:38;;;;;;;25.6;18.8;;;;;;;4.1;88;99270;;;;
2022/12/04 14:13:39;;;;;;;25.6;18.8;;;;;;;4;88.6;99270;;;;
2022/12/04 14:23:38;;;;;;;25.6;18.8;;;;;;;3.8;89.1;99270;;;;
2022/12/04 14:34:38;;;;;;;21.9;15.5;;;;;;;3.6;89.4;99280;;;;
2022/12/04 14:44:38;;;;;;;21.9;15.5;;;;;;;3.5;89.5;99290;;;;
2022/12/04 14:54:38;;;;;;;21.9;15.5;;;;;;;3.2;89.5;99280;;;;
2022/12/04 15:04:44;;;;;;;19.8;11;;;;;;;3;89.8;99280;;;;
2022/12/04 15:14:38;;;;;;;19.8;11;;;;;;;2.8;90.1;99280;;;;
2022/12/04 15:25:38;;;;;;;19.8;11;;;;;;;2.6;90.8;99270;;;;
2022/12/04 15:35:38;;;;;;;31.5;17.8;;;;;;;2.4;91.4;99270;;;;
2022/12/04 15:45:39;;;;;;;31.5;17.8;;;;;;;2.4;91.8;99290;;;;
2022/12/04 15:55:39;;;;;;;31.5;17.8;;;;;;;2.4;91.8;99300;;;;
2022/12/04 16:06:40;;;;;;;22.5;13.2;;;;;;;2.4;91.8;99310;;;;
2022/12/04 16:17:38;;;;;;;22.5;13.2;;;;;;;2.3;91.7;99310;;;;
2022/12/04 16:27:38;;;;;;;22.5;15.3;;;;;;;2.3;91.6;99300;;;;
2022/12/04 16:37:38;;;;;;;22.5;15.3;;;;;;;2.2;91.6;99310;;;;
2022/12/04 16:47:39;;;;;;;22.5;15.3;;;;;;;2.2;91.3;99310;;;;
2022/12/04 16:58:39;;;;;;;23.7;15.4;;;;;;;2.2;91.3;99320;;;;
2022/12/04 17:09:38;;;;;;;23.7;15.4;;;;;;;2.1;91.4;99320;;;;
2022/12/04 17:20:38;;;;;;;23.7;15.4;;;;;;;2.1;91.4;99320;;;;
2022/12/04 17:30:38;;;;;;;27.7;15;;;;;;;2;91.5;99310;;;;
2022/12/04 17:41:39;;;;;;;27.7;15;;;;;;;2;91.7;99320;;;;
2022/12/04 17:52:38;;;;;;;27.7;15;;;;;;;1.9;92;99320;;;;
2022/12/04 18:02:40;;;;;;;25.5;15.4;;;;;;;1.8;92.3;99320;;;;
2022/12/04 18:12:38;;;;;;;25.5;15.4;;;;;;;1.8;92.1;99330;;;;
2022/12/04 18:22:38;;;;;;;25.5;15.4;;;;;;;1.6;92.4;99330;;;;
2022/12/04 18:33:39;;;;;;;25.1;15.3;;;;;;;1.8;92.4;99330;;;;
2022/12/04 18:44:39;;;;;;;25.1;15.3;;;;;;;1.6;92.6;99320;;;;
2022/12/04 18:55:38;;;;;;;32.2;14.3;;;;;;;1.7;92.7;99320;;;;
2022/12/04 19:05:39;;;;;;;32.2;14.3;;;;;;;1.7;92.7;99330;;;;
2022/12/04 19:15:39;;;;;;;32.2;14.3;;;;;;;1.8;92.7;99320;;;;
2022/12/04 19:25:39;;;;;;;22.1;13.3;;;;;;;1.8;92.6;99310;;;;
2022/12/04 19:36:39;;;;;;;22.1;13.3;;;;;;;1.9;92.4;99320;;;;
2022/12/04 19:46:39;;;;;;;22.1;13.3;;;;;;;1.8;92.6;99320;;;;
2022/12/04 19:56:39;;;;;;;22.4;13.4;;;;;;;1.8;92.5;99330;;;;
2022/12/04 20:06:39;;;;;;;22.4;13.4;;;;;;;1.9;92.4;99340;;;;
2022/12/04 20:16:39;;;;;;;22.4;13.4;;;;;;;1.8;92.4;99340;;;;
2022/12/04 20:27:39;;;;;;;22.4;14.3;;;;;;;1.8;92.2;99340;;;;
2022/12/04 20:38:39;;;;;;;22.4;14.3;;;;;;;1.9;92.1;99330;;;;
2022/12/04 20:49:39;;;;;;;22.4;14.3;;;;;;;1.9;92.2;99320;;;;
2022/12/04 21:00:39;;;;;;;25.1;14;;;;;;;1.8;92.1;99320;;;;
2022/12/04 21:10:39;;;;;;;25.1;14;;;;;;;1.9;92;99320;;;;
2022/12/04 21:20:39;;;;;;;25.1;14;;;;;;;1.6;92.4;99320;;;;
2022/12/04 21:31:39;;;;;;;23.8;14.4;;;;;;;1.8;92.3;99310;;;;
2022/12/04 21:42:43;;;;;;;23.8;14.4;;;;;;;1.7;92.3;99310;;;;
2022/12/04 21:51:39;;;;;;;23.8;14.4;;;;;;;1.6;92.5;99330;;;;
2022/12/04 22:02:39;;;;;;;22.2;15.2;;;;;;;1.5;92.5;99320;;;;
2022/12/04 22:12:39;;;;;;;22.2;15.2;;;;;;;1.7;92.4;99310;;;;
2022/12/04 22:22:39;;;;;;;22.2;15.2;;;;;;;1.6;92.2;99320;;;;
2022/12/04 22:33:40;;;;;;;26.1;15.3;;;;;;;1.5;92.1;99330;;;;
2022/12/04 22:43:39;;;;;;;26.1;15.3;;;;;;;1.6;92;99330;;;;
2022/12/04 22:53:39;;;;;;;26.1;15.3;;;;;;;1.4;92;99300;;;;
2022/12/04 23:03:39;;;;;;;29.3;15;;;;;;;1.4;92.3;99290;;;;
2022/12/04 23:13:39;;;;;;;29.3;15;;;;;;;1.5;92.3;99290;;;;
2022/12/04 23:24:40;;;;;;;29.3;15;;;;;;;1.5;92.3;99300;;;;
2022/12/04 23:35:39;;;;;;;28.9;14.7;;;;;;;1.4;92.3;99300;;;;
2022/12/04 23:45:39;;;;;;;28.9;14.7;;;;;;;1.4;92.4;99310;;;;
2022/12/04 23:55:39;;;;;;;24.3;14.3;;;;;;;1.3;92.6;99310;;;;
